createdAt,value
2023-05-23T00:00:38.055Z,56.21
2023-05-23T00:03:06.245Z,56.20
2023-05-23T00:05:35.088Z,56.76
2023-05-23T00:08:02.622Z,57.02
2023-05-23T00:10:30.707Z,57.27
2023-05-23T00:12:58.224Z,56.70
2023-05-23T00:15:25.898Z,56.68
2023-05-23T00:17:54.160Z,57.11
2023-05-23T00:20:21.808Z,56.99
2023-05-23T00:22:49.920Z,56.68
2023-05-23T00:25:17.754Z,57.09
2023-05-23T00:27:45.758Z,56.75
2023-05-23T00:30:13.688Z,57.18
2023-05-23T00:32:41.586Z,56.83
2023-05-23T00:35:11.532Z,56.50
2023-05-23T00:37:39.013Z,56.22
2023-05-23T00:40:08.442Z,56.77
2023-05-23T00:42:35.932Z,56.63
2023-05-23T00:45:03.678Z,56.39
2023-05-23T00:47:32.194Z,56.57
2023-05-23T00:49:59.865Z,57.10
2023-05-23T00:52:28.427Z,57.09
2023-05-23T00:55:00.526Z,56.92
2023-05-23T00:57:28.439Z,56.78
2023-05-23T00:59:56.147Z,57.27
2023-05-23T01:02:23.903Z,57.78
2023-05-23T01:04:54.616Z,57.88
2023-05-23T01:07:22.410Z,58.28
2023-05-23T01:09:50.262Z,59.17
2023-05-23T01:12:27.257Z,59.79
2023-05-23T01:14:58.333Z,60.03
2023-05-23T01:17:42.115Z,58.66
2023-05-23T01:20:12.862Z,58.31
2023-05-23T01:23:11.813Z,57.85
2023-05-23T01:26:11.983Z,57.57
2023-05-23T01:28:48.003Z,57.84
2023-05-23T01:31:17.105Z,57.80
2023-05-23T01:33:45.313Z,57.94
2023-05-23T01:36:14.984Z,57.71
2023-05-23T01:38:43.092Z,57.86
2023-05-23T01:41:10.579Z,57.84
2023-05-23T01:43:38.996Z,57.51
2023-05-23T01:46:08.081Z,57.76
2023-05-23T01:48:36.638Z,58.38
2023-05-23T01:51:05.188Z,58.55
2023-05-23T01:53:33.354Z,59.10
2023-05-23T01:56:03.487Z,59.34
2023-05-23T01:58:31.104Z,59.31
2023-05-23T02:00:58.946Z,59.53
2023-05-23T02:03:26.897Z,59.53
2023-05-23T02:05:54.673Z,59.56
2023-05-23T02:08:22.066Z,59.43
2023-05-23T02:10:49.805Z,59.63
2023-05-23T02:13:17.331Z,59.39
2023-05-23T02:15:44.723Z,58.64
2023-05-23T02:18:13.221Z,59.44
2023-05-23T02:20:42.738Z,59.65
2023-05-23T02:23:10.605Z,59.76
2023-05-23T02:25:38.576Z,59.88
2023-05-23T02:28:07.498Z,59.91
2023-05-23T02:30:34.960Z,59.70
2023-05-23T02:33:05.625Z,59.78
2023-05-23T02:35:33.955Z,60.09
2023-05-23T02:38:01.461Z,59.87
2023-05-23T02:40:28.901Z,59.48
2023-05-23T02:42:57.437Z,59.37
2023-05-23T02:45:25.022Z,59.95
2023-05-23T02:47:52.542Z,59.81
2023-05-23T02:50:20.633Z,59.66
2023-05-23T02:52:48.097Z,59.35
2023-05-23T02:55:16.064Z,59.03
2023-05-23T02:57:44.098Z,59.32
2023-05-23T03:00:12.126Z,59.37
2023-05-23T03:02:40.003Z,59.93
2023-05-23T03:05:08.193Z,60.08
2023-05-23T03:07:36.838Z,59.94
2023-05-23T03:10:04.626Z,58.94
2023-05-23T03:12:32.421Z,59.09
2023-05-23T03:15:00.050Z,59.60
2023-05-23T03:17:27.658Z,59.65
2023-05-23T03:19:57.708Z,59.10
2023-05-23T03:22:25.226Z,59.01
2023-05-23T03:24:52.748Z,58.96
2023-05-23T03:27:20.589Z,59.04
2023-05-23T03:29:48.465Z,59.73
2023-05-23T03:32:16.046Z,59.42
2023-05-23T03:34:44.234Z,59.41
2023-05-23T03:37:12.116Z,59.11
2023-05-23T03:39:39.981Z,58.90
2023-05-23T03:42:07.900Z,58.71
2023-05-23T03:44:35.500Z,58.60
2023-05-23T03:47:04.096Z,59.35
2023-05-23T03:49:31.899Z,60.11
2023-05-23T03:51:59.401Z,60.23
2023-05-23T03:54:27.224Z,59.80
2023-05-23T03:56:55.025Z,59.57
2023-05-23T03:59:22.525Z,59.64
2023-05-23T04:01:50.206Z,59.62
2023-05-23T04:04:18.517Z,59.79
2023-05-23T04:06:46.142Z,59.95
2023-05-23T04:09:15.211Z,59.82
2023-05-23T04:11:44.336Z,59.65
2023-05-23T04:14:12.610Z,58.35
2023-05-23T04:16:41.886Z,58.95
2023-05-23T04:19:10.055Z,59.06
2023-05-23T04:21:37.581Z,59.48
2023-05-23T04:24:06.181Z,59.74
2023-05-23T04:26:36.261Z,59.39
2023-05-23T04:29:06.249Z,59.48
2023-05-23T04:31:34.482Z,57.99
2023-05-23T04:34:02.678Z,57.96
2023-05-23T04:36:30.413Z,56.40
2023-05-23T04:38:58.178Z,55.37
2023-05-23T04:41:25.653Z,55.83
2023-05-23T04:43:54.703Z,54.73
2023-05-23T04:46:26.309Z,54.11
2023-05-23T04:48:55.260Z,53.74
2023-05-23T04:51:23.175Z,54.39
2023-05-23T04:53:52.589Z,53.77
2023-05-23T04:56:22.006Z,53.05
2023-05-23T04:58:50.006Z,52.74
2023-05-23T05:01:17.831Z,52.21
2023-05-23T05:03:45.541Z,51.10
2023-05-23T05:06:14.434Z,50.96
2023-05-23T05:08:42.938Z,50.88
2023-05-23T05:11:10.946Z,50.40
2023-05-23T05:13:38.789Z,50.13
2023-05-23T05:16:06.743Z,50.64
2023-05-23T05:18:36.481Z,49.49
2023-05-23T05:21:04.616Z,50.32
2023-05-23T05:23:33.356Z,50.10
2023-05-23T05:26:01.137Z,50.56
2023-05-23T05:28:29.000Z,50.12
2023-05-23T05:30:57.040Z,49.03
2023-05-23T05:33:24.997Z,49.14
2023-05-23T05:35:53.509Z,49.15
2023-05-23T05:38:20.985Z,48.50
2023-05-23T05:40:48.449Z,47.63
2023-05-23T05:43:16.805Z,47.30
2023-05-23T05:45:44.270Z,47.78
2023-05-23T05:48:12.196Z,47.34
2023-05-23T05:50:40.312Z,48.55
2023-05-23T05:53:08.719Z,49.16
2023-05-23T05:55:36.172Z,48.83
2023-05-23T05:58:04.254Z,47.21
2023-05-23T06:00:34.941Z,47.04
2023-05-23T06:03:02.775Z,48.74
2023-05-23T06:05:30.858Z,50.32
2023-05-23T06:07:58.306Z,47.90
2023-05-23T06:10:26.246Z,46.78
2023-05-23T06:12:54.102Z,46.90
2023-05-23T06:15:21.560Z,47.01
2023-05-23T06:17:49.279Z,46.62
2023-05-23T06:20:16.741Z,46.36
2023-05-23T06:22:44.948Z,46.44
2023-05-23T06:25:16.332Z,45.96
2023-05-23T06:27:44.937Z,45.69
2023-05-23T06:30:13.132Z,45.57
2023-05-23T06:32:41.388Z,44.75
2023-05-23T06:35:09.513Z,44.42
2023-05-23T06:37:37.227Z,44.88
2023-05-23T06:40:05.619Z,45.87
2023-05-23T06:42:33.172Z,45.54
2023-05-23T06:45:03.231Z,45.57
2023-05-23T06:47:32.535Z,46.79
2023-05-23T06:49:59.998Z,46.13
2023-05-23T06:52:27.724Z,46.42
2023-05-23T06:54:55.616Z,47.18
2023-05-23T06:57:23.964Z,45.58
2023-05-23T06:59:51.979Z,46.61
2023-05-23T07:02:19.422Z,46.81
2023-05-23T07:04:46.980Z,45.29
2023-05-23T07:07:15.720Z,46.65
2023-05-23T07:09:44.328Z,46.12
2023-05-23T07:12:12.207Z,45.26
2023-05-23T07:14:40.665Z,43.99
2023-05-23T07:17:08.198Z,45.00
2023-05-23T07:19:35.786Z,45.39
2023-05-23T07:22:03.640Z,44.50
2023-05-23T07:24:31.670Z,43.54
2023-05-23T07:26:59.308Z,43.92
2023-05-23T07:29:27.168Z,45.17
2023-05-23T07:31:54.863Z,44.68
2023-05-23T07:34:22.728Z,44.46
2023-05-23T07:36:51.028Z,44.97
2023-05-23T07:39:24.394Z,44.49
2023-05-23T07:41:52.578Z,44.08
2023-05-23T07:44:22.444Z,43.68
2023-05-23T07:46:53.030Z,44.66
2023-05-23T07:49:21.040Z,44.72
2023-05-23T07:51:48.473Z,43.49
2023-05-23T07:54:16.758Z,42.87
2023-05-23T07:56:45.219Z,44.91
2023-05-23T07:59:13.570Z,42.60
2023-05-23T08:01:42.416Z,43.99
2023-05-23T08:04:11.162Z,43.31
2023-05-23T08:06:45.636Z,43.17
2023-05-23T08:09:20.674Z,42.68
2023-05-23T08:11:49.092Z,42.57
2023-05-23T08:14:16.575Z,41.35
2023-05-23T08:16:44.802Z,42.30
2023-05-23T08:19:12.823Z,41.65
2023-05-23T08:21:40.519Z,42.73
2023-05-23T08:24:08.236Z,42.51
2023-05-23T08:26:36.539Z,41.08
2023-05-23T08:29:04.120Z,41.49
2023-05-23T08:31:32.283Z,41.39
2023-05-23T08:34:00.511Z,41.02
2023-05-23T08:36:29.529Z,41.06
2023-05-23T08:38:57.302Z,40.16
2023-05-23T08:41:25.412Z,41.02
2023-05-23T08:43:53.044Z,40.81
2023-05-23T08:46:22.892Z,39.78
2023-05-23T08:48:55.004Z,39.52
2023-05-23T08:51:25.883Z,40.08
2023-05-23T08:53:54.039Z,39.70
2023-05-23T08:56:24.769Z,40.87
2023-05-23T08:58:53.278Z,40.05
2023-05-23T09:01:23.097Z,38.47
2023-05-23T09:03:51.506Z,38.21
2023-05-23T09:06:21.871Z,39.18
2023-05-23T09:08:49.551Z,38.80
2023-05-23T09:11:17.528Z,38.76
2023-05-23T09:13:45.916Z,37.93
2023-05-23T09:16:17.922Z,37.65
2023-05-23T09:18:46.197Z,37.54
2023-05-23T09:21:14.218Z,38.28
2023-05-23T09:23:43.799Z,37.77
2023-05-23T09:26:13.428Z,37.12
2023-05-23T09:28:43.450Z,36.20
2023-05-23T09:31:11.230Z,37.11
2023-05-23T09:33:52.692Z,35.75
2023-05-23T09:36:20.474Z,37.42
2023-05-23T09:38:49.038Z,38.98
2023-05-23T09:41:16.606Z,37.59
2023-05-23T09:43:55.024Z,39.30
2023-05-23T09:46:22.971Z,38.45
2023-05-23T09:48:51.742Z,37.99
2023-05-23T09:51:23.299Z,38.40
2023-05-23T09:53:52.360Z,40.14
2023-05-23T09:56:20.201Z,38.83
2023-05-23T09:58:49.062Z,37.83
2023-05-23T10:01:17.164Z,38.40
2023-05-23T10:03:51.824Z,34.53
2023-05-23T10:06:31.558Z,37.76
2023-05-23T10:09:04.762Z,38.21
2023-05-23T10:11:35.116Z,37.48
2023-05-23T10:14:05.698Z,36.21
2023-05-23T10:16:56.630Z,36.20
2023-05-23T10:19:26.962Z,34.95
2023-05-23T10:21:59.669Z,35.34
2023-05-23T10:24:27.983Z,35.21
2023-05-23T10:26:55.946Z,36.25
2023-05-23T10:29:23.715Z,37.42
2023-05-23T10:31:52.956Z,37.72
2023-05-23T10:34:25.895Z,37.02
2023-05-23T10:36:57.414Z,37.50
2023-05-23T10:39:41.836Z,37.68
2023-05-23T10:42:17.904Z,36.92
2023-05-23T10:44:45.420Z,35.58
2023-05-23T10:47:13.317Z,33.83
2023-05-23T10:49:45.424Z,35.39
2023-05-23T10:52:15.220Z,37.93
2023-05-23T10:54:51.628Z,38.52
2023-05-23T10:57:21.320Z,38.04
2023-05-23T10:59:55.156Z,36.90
2023-05-23T11:02:29.356Z,38.23
2023-05-23T11:05:15.725Z,36.83
2023-05-23T11:07:43.406Z,38.17
2023-05-23T11:10:12.096Z,33.79
2023-05-23T11:12:44.434Z,38.74
2023-05-23T11:15:18.409Z,37.16
2023-05-23T11:17:57.557Z,36.12
2023-05-23T11:20:27.614Z,38.18
2023-05-23T11:23:00.444Z,36.41
2023-05-23T11:25:50.060Z,32.49
2023-05-23T11:28:19.592Z,32.39
2023-05-23T11:30:51.180Z,31.58
2023-05-23T11:33:18.994Z,31.79
2023-05-23T11:35:47.893Z,29.40
2023-05-23T11:38:18.532Z,31.26
2023-05-23T11:40:46.837Z,31.73
2023-05-23T11:43:16.751Z,32.33
2023-05-23T11:45:46.991Z,31.84
2023-05-23T11:48:16.827Z,31.48
2023-05-23T11:50:53.103Z,32.42
2023-05-23T11:53:23.074Z,32.34
2023-05-23T11:55:55.003Z,31.53
2023-05-23T11:58:26.464Z,32.07
2023-05-23T12:00:59.479Z,32.23
2023-05-23T12:03:27.522Z,34.18
2023-05-23T12:05:56.388Z,33.68
2023-05-23T12:08:25.273Z,32.52
2023-05-23T12:10:57.312Z,33.45
2023-05-23T12:13:26.234Z,31.07
2023-05-23T12:15:56.172Z,32.17
2023-05-23T12:18:24.277Z,32.66
2023-05-23T12:20:52.203Z,34.07
2023-05-23T12:23:23.479Z,32.01
2023-05-23T12:25:52.394Z,31.93
2023-05-23T12:28:21.143Z,30.53
2023-05-23T12:30:49.534Z,31.98
2023-05-23T12:33:18.745Z,31.31
2023-05-23T12:35:46.774Z,31.60
2023-05-23T12:38:17.611Z,30.98
2023-05-23T12:40:45.104Z,32.20
2023-05-23T12:43:15.586Z,31.20
2023-05-23T12:45:43.524Z,33.14
2023-05-23T12:48:11.414Z,30.75
2023-05-23T12:50:39.275Z,30.96
2023-05-23T12:53:06.714Z,31.41
2023-05-23T12:55:34.113Z,31.42
2023-05-23T12:58:01.835Z,29.31
2023-05-23T13:00:29.317Z,30.02
2023-05-23T13:02:57.177Z,31.31
2023-05-23T13:05:25.059Z,32.65
2023-05-23T13:07:52.519Z,31.71
2023-05-23T13:10:20.257Z,30.53
2023-05-23T13:12:47.987Z,30.00
2023-05-23T13:15:15.692Z,29.80
2023-05-23T13:17:47.845Z,30.69
2023-05-23T13:20:17.811Z,31.18
2023-05-23T13:22:45.360Z,29.88
2023-05-23T13:25:12.837Z,30.82
2023-05-23T13:27:40.639Z,29.10
2023-05-23T13:30:08.678Z,29.18
2023-05-23T13:32:36.150Z,29.52
2023-05-23T13:35:04.056Z,28.71
2023-05-23T13:37:31.543Z,28.19
2023-05-23T13:39:58.943Z,27.67
2023-05-23T13:42:26.994Z,26.99
2023-05-23T13:44:54.414Z,26.39
2023-05-23T13:47:21.950Z,27.30
2023-05-23T13:49:50.283Z,27.19
2023-05-23T13:52:17.720Z,28.59
2023-05-23T13:54:46.256Z,29.12
2023-05-23T13:57:13.985Z,30.40
2023-05-23T13:59:41.402Z,28.60
2023-05-23T14:02:09.008Z,28.93
2023-05-23T14:04:37.280Z,30.08
2023-05-23T14:07:04.765Z,28.11
2023-05-23T14:09:32.260Z,28.47
2023-05-23T14:12:00.049Z,28.55
2023-05-23T14:14:27.486Z,31.29
2023-05-23T14:16:55.005Z,29.50
2023-05-23T14:19:22.788Z,32.58
2023-05-23T14:21:50.783Z,34.90
2023-05-23T14:24:18.609Z,31.64
2023-05-23T14:26:47.151Z,31.50
2023-05-23T14:29:14.600Z,30.76
2023-05-23T14:31:42.657Z,30.96
2023-05-23T14:34:11.432Z,31.90
2023-05-23T14:36:39.093Z,33.82
2023-05-23T14:39:09.108Z,31.79
2023-05-23T14:41:38.753Z,31.02
2023-05-23T14:44:06.291Z,31.08
2023-05-23T14:46:33.869Z,31.00
2023-05-23T14:49:01.609Z,30.95
2023-05-23T14:51:44.879Z,30.49
2023-05-23T14:54:16.597Z,33.33
2023-05-23T14:56:44.312Z,32.05
2023-05-23T14:59:11.762Z,30.84
2023-05-23T15:01:40.647Z,31.49
2023-05-23T15:04:12.115Z,30.76
2023-05-23T15:06:41.682Z,31.86
2023-05-23T15:09:10.668Z,31.92
2023-05-23T15:11:38.917Z,32.61
2023-05-23T15:14:08.065Z,33.45
2023-05-23T15:16:37.118Z,33.34
2023-05-23T15:19:05.940Z,32.37
2023-05-23T15:21:33.706Z,33.41
2023-05-23T15:24:01.360Z,32.75
2023-05-23T15:26:29.027Z,33.87
2023-05-23T15:28:58.080Z,32.75
2023-05-23T15:31:26.212Z,33.34
2023-05-23T15:33:53.785Z,32.44
2023-05-23T15:36:21.458Z,33.79
2023-05-23T15:38:48.920Z,34.82
2023-05-23T15:41:16.956Z,32.37
2023-05-23T15:43:44.659Z,34.47
2023-05-23T15:46:12.224Z,32.66
2023-05-23T15:48:41.930Z,32.59
2023-05-23T15:51:09.678Z,31.46
2023-05-23T15:53:43.295Z,32.98
2023-05-23T15:56:24.822Z,35.76
2023-05-23T15:58:52.281Z,36.43
2023-05-23T16:01:20.644Z,39.35
2023-05-23T16:03:48.753Z,40.48
2023-05-23T16:06:16.315Z,35.13
2023-05-23T16:08:43.856Z,41.00
2023-05-23T16:11:11.574Z,40.54
2023-05-23T16:13:39.186Z,40.44
2023-05-23T16:16:06.864Z,40.96
2023-05-23T16:18:34.625Z,41.31
2023-05-23T16:21:02.067Z,38.21
2023-05-23T16:23:29.564Z,39.28
2023-05-23T16:25:57.395Z,42.62
2023-05-23T16:28:27.129Z,42.86
2023-05-23T16:30:55.733Z,42.86
2023-05-23T16:33:23.489Z,44.04
2023-05-23T16:35:50.991Z,44.00
2023-05-23T16:38:18.508Z,43.55
2023-05-23T16:40:46.254Z,44.63
2023-05-23T16:43:13.682Z,41.74
2023-05-23T16:45:42.122Z,42.86
2023-05-23T16:48:10.073Z,43.62
2023-05-23T16:50:37.488Z,43.10
2023-05-23T16:53:04.877Z,39.87
2023-05-23T16:55:32.624Z,43.54
2023-05-23T16:58:00.065Z,43.40
2023-05-23T17:00:27.556Z,41.24
2023-05-23T17:02:55.344Z,41.60
2023-05-23T17:05:22.855Z,42.50
2023-05-23T17:07:50.373Z,42.66
2023-05-23T17:10:20.208Z,42.57
2023-05-23T17:12:47.986Z,44.27
2023-05-23T17:15:16.793Z,43.95
2023-05-23T17:17:44.555Z,40.17
2023-05-23T17:20:11.986Z,40.21
2023-05-23T17:22:39.427Z,42.11
2023-05-23T17:25:07.483Z,44.83
2023-05-23T17:27:34.949Z,45.92
2023-05-23T17:30:05.071Z,49.06
2023-05-23T17:32:33.002Z,50.81
2023-05-23T17:35:00.544Z,50.87
2023-05-23T17:37:27.992Z,52.13
2023-05-23T17:39:57.642Z,53.42
2023-05-23T17:42:25.461Z,54.59
2023-05-23T17:44:55.188Z,55.68
2023-05-23T17:47:22.947Z,57.46
2023-05-23T17:49:50.586Z,57.85
2023-05-23T17:52:18.026Z,57.28
2023-05-23T17:54:45.860Z,57.07
2023-05-23T17:57:13.948Z,57.91
2023-05-23T17:59:41.525Z,58.74
2023-05-23T18:02:10.715Z,59.35
2023-05-23T18:04:38.559Z,61.18
2023-05-23T18:07:06.046Z,60.74
2023-05-23T18:09:33.463Z,59.75
2023-05-23T18:12:01.356Z,61.34
2023-05-23T18:14:28.799Z,61.79
2023-05-23T18:16:56.312Z,61.91
2023-05-23T18:19:24.128Z,64.75
2023-05-23T18:21:51.572Z,65.02
2023-05-23T18:24:19.076Z,65.75
2023-05-23T18:26:47.849Z,69.12
2023-05-23T18:29:15.691Z,67.88
2023-05-23T18:31:44.807Z,69.05
2023-05-23T18:34:13.951Z,70.63
2023-05-23T18:36:41.423Z,69.83
2023-05-23T18:39:10.017Z,70.28
2023-05-23T18:41:38.923Z,70.81
2023-05-23T18:44:06.467Z,71.42
2023-05-23T18:46:34.354Z,72.73
2023-05-23T18:49:02.323Z,71.14
2023-05-23T18:51:29.793Z,72.45
2023-05-23T18:54:04.385Z,71.18
2023-05-23T18:56:33.167Z,71.16
2023-05-23T18:59:00.558Z,69.19
2023-05-23T19:01:28.090Z,68.89
2023-05-23T19:03:57.875Z,67.56
2023-05-23T19:06:26.794Z,67.05
2023-05-23T19:08:54.356Z,65.83
2023-05-23T19:11:22.660Z,66.84
2023-05-23T19:13:50.290Z,65.64
2023-05-23T19:16:17.767Z,65.66
2023-05-23T19:18:45.782Z,65.40
2023-05-23T19:21:13.474Z,64.51
2023-05-23T19:23:40.969Z,63.02
2023-05-23T19:26:10.276Z,63.08
2023-05-23T19:28:37.768Z,62.08
2023-05-23T19:31:05.485Z,62.49
2023-05-23T19:33:33.300Z,61.43
2023-05-23T19:36:00.988Z,62.22
2023-05-23T19:38:28.373Z,60.23
2023-05-23T19:40:56.094Z,59.77
2023-05-23T19:43:23.634Z,59.23
2023-05-23T19:45:51.375Z,60.86
2023-05-23T19:48:19.090Z,60.00
2023-05-23T19:50:47.600Z,59.87
2023-05-23T19:53:15.135Z,59.55
2023-05-23T19:55:42.827Z,56.96
2023-05-23T19:58:10.445Z,57.45
2023-05-23T20:00:38.103Z,58.79
2023-05-23T20:03:06.887Z,58.95
2023-05-23T20:05:34.421Z,57.64
2023-05-23T20:08:02.020Z,58.69
2023-05-23T20:10:29.716Z,58.33
2023-05-23T20:12:57.221Z,58.73
2023-05-23T20:15:38.689Z,58.24
2023-05-23T20:18:08.310Z,58.16
2023-05-23T20:20:36.078Z,58.55
2023-05-23T20:23:03.844Z,58.13
2023-05-23T20:25:31.568Z,58.84
2023-05-23T20:27:59.055Z,58.35
2023-05-23T20:30:26.656Z,58.05
2023-05-23T20:32:54.607Z,57.58
2023-05-23T20:35:22.916Z,57.96
2023-05-23T20:37:57.074Z,58.22
2023-05-23T20:40:25.851Z,58.41
2023-05-23T20:42:53.511Z,58.41
2023-05-23T20:45:21.770Z,57.90
2023-05-23T20:47:49.604Z,58.21
2023-05-23T20:50:19.170Z,58.87
2023-05-23T20:52:46.615Z,58.17
2023-05-23T20:55:14.946Z,58.08
2023-05-23T20:57:42.697Z,57.55
2023-05-23T21:00:13.701Z,58.03
2023-05-23T21:02:42.380Z,57.97
2023-05-23T21:05:10.977Z,58.28
2023-05-23T21:07:38.762Z,57.69
2023-05-23T21:10:06.834Z,58.22
2023-05-23T21:12:34.300Z,58.07
2023-05-23T21:15:01.869Z,58.06
2023-05-23T21:17:29.800Z,57.57
2023-05-23T21:19:57.281Z,57.44
2023-05-23T21:22:24.740Z,57.74
2023-05-23T21:24:52.466Z,57.88
2023-05-23T21:27:19.946Z,57.91
2023-05-23T21:29:47.533Z,58.11
2023-05-23T21:32:15.299Z,57.25
2023-05-23T21:34:42.687Z,59.21
2023-05-23T21:37:10.165Z,58.72
2023-05-23T21:39:50.649Z,58.81
2023-05-23T21:42:19.746Z,59.08
2023-05-23T21:44:47.472Z,58.73
2023-05-23T21:47:14.971Z,58.99
2023-05-23T21:49:42.710Z,59.12
2023-05-23T21:52:10.372Z,60.51
2023-05-23T21:54:37.833Z,61.54
2023-05-23T21:57:05.290Z,61.99
2023-05-23T21:59:32.958Z,62.95
2023-05-23T22:02:01.024Z,62.20
2023-05-23T22:04:28.899Z,61.38
2023-05-23T22:06:56.587Z,60.90
2023-05-23T22:09:24.090Z,60.49
2023-05-23T22:11:52.056Z,59.60
2023-05-23T22:14:19.524Z,59.62
2023-05-23T22:16:47.139Z,59.96
2023-05-23T22:19:18.084Z,60.51
2023-05-23T22:21:45.723Z,60.73
2023-05-23T22:24:13.225Z,61.00
2023-05-23T22:26:41.155Z,60.78
2023-05-23T22:29:08.561Z,60.53
2023-05-23T22:31:36.095Z,59.99
2023-05-23T22:34:03.978Z,59.79
2023-05-23T22:36:33.470Z,60.05
2023-05-23T22:39:02.444Z,60.98
2023-05-23T22:41:30.121Z,60.82
2023-05-23T22:43:57.587Z,60.63
2023-05-23T22:46:25.033Z,60.73
2023-05-23T22:48:55.134Z,60.95
2023-05-23T22:51:22.625Z,60.66
2023-05-23T22:53:50.171Z,60.37
2023-05-23T22:56:17.900Z,60.36
2023-05-23T22:58:45.282Z,60.39
2023-05-23T23:01:12.771Z,60.64
2023-05-23T23:03:40.776Z,60.92
2023-05-23T23:06:09.466Z,60.41
2023-05-23T23:08:37.765Z,61.31
2023-05-23T23:11:05.479Z,61.61
2023-05-23T23:13:34.079Z,61.21
2023-05-23T23:16:01.502Z,61.76
2023-05-23T23:18:29.443Z,61.79
2023-05-23T23:20:56.826Z,62.82
2023-05-23T23:23:24.256Z,62.88
2023-05-23T23:25:52.257Z,64.45
2023-05-23T23:28:20.824Z,64.15
2023-05-23T23:30:48.356Z,64.23
2023-05-23T23:33:18.162Z,64.03
2023-05-23T23:35:48.596Z,66.32
2023-05-23T23:38:16.547Z,66.89
2023-05-23T23:40:45.669Z,66.42
2023-05-23T23:43:13.594Z,68.78
2023-05-23T23:45:41.278Z,69.58
2023-05-23T23:48:08.781Z,68.79
2023-05-23T23:50:36.285Z,69.33
2023-05-23T23:53:04.609Z,69.41
2023-05-23T23:55:32.071Z,68.58
2023-05-23T23:57:59.522Z,67.79
